Raymond, Minnesota
Current Conditions -  °F | °C
As of 6:35 AM on Monday 24 Nov 2014 (Local Time) from KBDH Reporting Station
Light Snow Light Snow  
Wind Chill: -2°   Ceiling: 2300
Heat Index: 18°   Visibility: 7mi
Dew Point: 10°   Wind: 30mph
Humidity: 73%   Direction: 310°NW
Pressure: 29.48"   Gusts: 33mph
Location:  45.02°N, 95.24°W
Report Text: KBDH 241235Z AUTO 31026G29KT 7SM -SN SCT016 OVC023 M08/M12 A2948 RMK AO2
Loading
Personal Weather Stations






























Interactive Weather Map New forecast layout! Learn more

10-Day Weather Forecast

Advertisements
Track Severe Weather on mobile